sensor_id;sensor_type;location;lat;lon;timestamp;temperature;humidity
55721;DHT22;41626;53.098;6.168;2022-12-07T00:04:12;4.50;99.90
55721;DHT22;41626;53.098;6.168;2022-12-07T00:06:40;4.60;99.90
55721;DHT22;41626;53.098;6.168;2022-12-07T00:09:07;4.50;99.90
55721;DHT22;41626;53.098;6.168;2022-12-07T00:11:34;4.50;99.90
55721;DHT22;41626;53.098;6.168;2022-12-07T00:14:03;4.60;99.90
55721;DHT22;41626;53.098;6.168;2022-12-07T00:16:32;4.70;99.90
55721;DHT22;41626;53.098;6.168;2022-12-07T00:18:58;4.70;99.90
55721;DHT22;41626;53.098;6.168;2022-12-07T00:21:27;4.70;99.90
55721;DHT22;41626;53.098;6.168;2022-12-07T00:23:54;4.90;99.90
55721;DHT22;41626;53.098;6.168;2022-12-07T00:26:27;4.90;99.90
55721;DHT22;41626;53.098;6.168;2022-12-07T00:28:59;4.90;99.90
55721;DHT22;41626;53.098;6.168;2022-12-07T00:31:27;4.80;99.90
55721;DHT22;41626;53.098;6.168;2022-12-07T00:33:53;4.80;99.90
55721;DHT22;41626;53.098;6.168;2022-12-07T00:36:21;5.00;99.90
55721;DHT22;41626;53.098;6.168;2022-12-07T00:38:47;5.00;99.90
55721;DHT22;41626;53.098;6.168;2022-12-07T00:41:18;5.00;99.90
55721;DHT22;41626;53.098;6.168;2022-12-07T00:43:46;5.10;99.90
55721;DHT22;41626;53.098;6.168;2022-12-07T00:46:12;5.10;99.90
55721;DHT22;41626;53.098;6.168;2022-12-07T00:48:38;5.10;99.90
55721;DHT22;41626;53.098;6.168;2022-12-07T00:51:05;5.10;99.90
55721;DHT22;41626;53.098;6.168;2022-12-07T00:53:31;5.00;99.90
55721;DHT22;41626;53.098;6.168;2022-12-07T00:58:59;5.10;99.90
55721;DHT22;41626;53.098;6.168;2022-12-07T01:01:26;4.90;99.90
55721;DHT22;41626;53.098;6.168;2022-12-07T01:03:52;4.90;99.90
55721;DHT22;41626;53.098;6.168;2022-12-07T01:06:20;4.90;99.90
55721;DHT22;41626;53.098;6.168;2022-12-07T01:08:46;4.80;99.90
55721;DHT22;41626;53.098;6.168;2022-12-07T01:11:14;4.70;99.90
55721;DHT22;41626;53.098;6.168;2022-12-07T01:13:40;4.80;99.90
55721;DHT22;41626;53.098;6.168;2022-12-07T01:16:07;4.70;99.90
55721;DHT22;41626;53.098;6.168;2022-12-07T01:18:35;4.80;99.90
55721;DHT22;41626;53.098;6.168;2022-12-07T01:21:07;4.60;99.90
55721;DHT22;41626;53.098;6.168;2022-12-07T01:23:35;4.90;99.90
55721;DHT22;41626;53.098;6.168;2022-12-07T01:26:03;4.90;99.90
55721;DHT22;41626;53.098;6.168;2022-12-07T01:28:30;4.80;99.90
55721;DHT22;41626;53.098;6.168;2022-12-07T01:33:28;4.80;99.90
55721;DHT22;41626;53.098;6.168;2022-12-07T01:35:54;4.70;99.90
55721;DHT22;41626;53.098;6.168;2022-12-07T01:38:20;4.80;99.90
55721;DHT22;41626;53.098;6.168;2022-12-07T01:40:53;4.70;99.90
55721;DHT22;41626;53.098;6.168;2022-12-07T01:43:20;4.60;99.90
55721;DHT22;41626;53.098;6.168;2022-12-07T01:45:46;4.70;99.90
55721;DHT22;41626;53.098;6.168;2022-12-07T01:48:15;4.50;99.90
55721;DHT22;41626;53.098;6.168;2022-12-07T01:50:43;4.60;99.90
55721;DHT22;41626;53.098;6.168;2022-12-07T01:53:10;4.60;99.90
55721;DHT22;41626;53.098;6.168;2022-12-07T01:55:40;4.40;99.90
55721;DHT22;41626;53.098;6.168;2022-12-07T01:58:08;4.40;99.90
55721;DHT22;41626;53.098;6.168;2022-12-07T02:00:34;4.50;99.90
55721;DHT22;41626;53.098;6.168;2022-12-07T02:03:20;4.50;99.90
55721;DHT22;41626;53.098;6.168;2022-12-07T02:05:49;4.60;99.90
55721;DHT22;41626;53.098;6.168;2022-12-07T02:08:16;4.80;99.90
55721;DHT22;41626;53.098;6.168;2022-12-07T02:10:43;4.70;99.90
55721;DHT22;41626;53.098;6.168;2022-12-07T02:13:10;4.80;99.90
55721;DHT22;41626;53.098;6.168;2022-12-07T02:18:54;4.80;99.90
55721;DHT22;41626;53.098;6.168;2022-12-07T02:29:32;4.80;99.90
55721;DHT22;41626;53.098;6.168;2022-12-07T02:32:19;4.70;99.90
55721;DHT22;41626;53.098;6.168;2022-12-07T02:34:51;4.70;99.90
55721;DHT22;41626;53.098;6.168;2022-12-07T02:37:33;4.60;99.90
55721;DHT22;41626;53.098;6.168;2022-12-07T02:40:27;4.60;99.90
55721;DHT22;41626;53.098;6.168;2022-12-07T02:43:06;4.60;99.90
55721;DHT22;41626;53.098;6.168;2022-12-07T02:45:36;4.60;99.90
55721;DHT22;41626;53.098;6.168;2022-12-07T02:48:04;4.60;99.90
55721;DHT22;41626;53.098;6.168;2022-12-07T02:50:30;4.50;99.90
55721;DHT22;41626;53.098;6.168;2022-12-07T02:52:56;4.60;99.90
55721;DHT22;41626;53.098;6.168;2022-12-07T02:55:27;4.50;99.90
55721;DHT22;41626;53.098;6.168;2022-12-07T03:00:38;4.50;99.90
55721;DHT22;41626;53.098;6.168;2022-12-07T03:03:10;4.40;99.90
55721;DHT22;41626;53.098;6.168;2022-12-07T03:06:02;4.40;99.90
55721;DHT22;41626;53.098;6.168;2022-12-07T03:11:32;4.30;99.90
55721;DHT22;41626;53.098;6.168;2022-12-07T03:14:13;4.30;99.90
55721;DHT22;41626;53.098;6.168;2022-12-07T03:16:52;4.30;99.90
55721;DHT22;41626;53.098;6.168;2022-12-07T03:19:21;4.50;99.90
55721;DHT22;41626;53.098;6.168;2022-12-07T03:22:26;4.50;99.90
55721;DHT22;41626;53.098;6.168;2022-12-07T03:24:57;4.40;99.90
55721;DHT22;41626;53.098;6.168;2022-12-07T03:27:31;4.40;99.90
55721;DHT22;41626;53.098;6.168;2022-12-07T03:30:08;4.30;99.90
55721;DHT22;41626;53.098;6.168;2022-12-07T03:33:23;4.30;99.90
55721;DHT22;41626;53.098;6.168;2022-12-07T03:35:34;4.20;99.90
55721;DHT22;41626;53.098;6.168;2022-12-07T03:38:13;4.10;99.90
55721;DHT22;41626;53.098;6.168;2022-12-07T03:40:48;4.20;99.90
55721;DHT22;41626;53.098;6.168;2022-12-07T03:43:18;4.20;99.90
55721;DHT22;41626;53.098;6.168;2022-12-07T03:45:50;4.10;99.90
55721;DHT22;41626;53.098;6.168;2022-12-07T03:48:30;3.90;99.90
55721;DHT22;41626;53.098;6.168;2022-12-07T03:51:13;4.10;99.90
55721;DHT22;41626;53.098;6.168;2022-12-07T03:53:44;4.10;99.90
55721;DHT22;41626;53.098;6.168;2022-12-07T03:56:12;4.00;99.90
55721;DHT22;41626;53.098;6.168;2022-12-07T03:58:39;4.00;99.90
55721;DHT22;41626;53.098;6.168;2022-12-07T04:01:05;4.10;99.90
55721;DHT22;41626;53.098;6.168;2022-12-07T04:03:31;4.20;99.90
55721;DHT22;41626;53.098;6.168;2022-12-07T04:05:57;4.20;99.90
55721;DHT22;41626;53.098;6.168;2022-12-07T04:08:24;4.30;99.90
55721;DHT22;41626;53.098;6.168;2022-12-07T04:10:49;4.30;99.90
55721;DHT22;41626;53.098;6.168;2022-12-07T04:13:15;4.50;99.90
55721;DHT22;41626;53.098;6.168;2022-12-07T04:15:41;4.50;99.90
55721;DHT22;41626;53.098;6.168;2022-12-07T04:18:06;4.60;99.90
55721;DHT22;41626;53.098;6.168;2022-12-07T04:20:32;4.50;99.90
55721;DHT22;41626;53.098;6.168;2022-12-07T04:22:58;4.50;99.90
55721;DHT22;41626;53.098;6.168;2022-12-07T04:25:23;4.40;99.90
55721;DHT22;41626;53.098;6.168;2022-12-07T04:27:49;4.40;99.90
55721;DHT22;41626;53.098;6.168;2022-12-07T04:30:15;4.50;99.90
55721;DHT22;41626;53.098;6.168;2022-12-07T04:32:40;4.50;99.90
55721;DHT22;41626;53.098;6.168;2022-12-07T04:35:07;4.40;99.90
55721;DHT22;41626;53.098;6.168;2022-12-07T04:37:33;4.40;99.90
55721;DHT22;41626;53.098;6.168;2022-12-07T04:39:58;4.40;99.90
55721;DHT22;41626;53.098;6.168;2022-12-07T04:42:24;4.40;99.90
55721;DHT22;41626;53.098;6.168;2022-12-07T04:44:50;4.20;99.90
55721;DHT22;41626;53.098;6.168;2022-12-07T04:47:16;4.20;99.90
55721;DHT22;41626;53.098;6.168;2022-12-07T04:49:42;4.20;99.90
55721;DHT22;41626;53.098;6.168;2022-12-07T04:52:07;4.10;99.90
55721;DHT22;41626;53.098;6.168;2022-12-07T04:54:33;4.10;99.90
55721;DHT22;41626;53.098;6.168;2022-12-07T04:56:59;4.10;99.90
55721;DHT22;41626;53.098;6.168;2022-12-07T04:59:24;4.20;99.90
55721;DHT22;41626;53.098;6.168;2022-12-07T05:01:50;4.10;99.90
55721;DHT22;41626;53.098;6.168;2022-12-07T05:04:16;4.00;99.90
55721;DHT22;41626;53.098;6.168;2022-12-07T05:06:43;3.90;99.90
55721;DHT22;41626;53.098;6.168;2022-12-07T05:09:08;4.00;99.90
55721;DHT22;41626;53.098;6.168;2022-12-07T05:11:34;4.00;99.90
55721;DHT22;41626;53.098;6.168;2022-12-07T05:14:15;3.90;99.90
55721;DHT22;41626;53.098;6.168;2022-12-07T05:16:42;3.90;99.90
55721;DHT22;41626;53.098;6.168;2022-12-07T05:19:08;3.90;99.90
55721;DHT22;41626;53.098;6.168;2022-12-07T05:21:35;3.80;99.90
55721;DHT22;41626;53.098;6.168;2022-12-07T05:24:01;3.70;99.90
55721;DHT22;41626;53.098;6.168;2022-12-07T05:26:27;3.80;99.90
55721;DHT22;41626;53.098;6.168;2022-12-07T05:28:54;3.80;99.90
55721;DHT22;41626;53.098;6.168;2022-12-07T05:31:21;3.80;99.90
55721;DHT22;41626;53.098;6.168;2022-12-07T05:33:46;3.90;99.90
55721;DHT22;41626;53.098;6.168;2022-12-07T05:36:12;4.10;99.90
55721;DHT22;41626;53.098;6.168;2022-12-07T05:38:38;3.90;99.90
55721;DHT22;41626;53.098;6.168;2022-12-07T05:41:05;4.00;99.90
55721;DHT22;41626;53.098;6.168;2022-12-07T05:43:32;4.10;99.90
55721;DHT22;41626;53.098;6.168;2022-12-07T05:45:57;4.20;99.90
55721;DHT22;41626;53.098;6.168;2022-12-07T05:48:23;4.20;99.90
55721;DHT22;41626;53.098;6.168;2022-12-07T05:50:50;4.30;99.90
55721;DHT22;41626;53.098;6.168;2022-12-07T05:53:16;4.30;99.90
55721;DHT22;41626;53.098;6.168;2022-12-07T05:55:42;4.40;99.90
55721;DHT22;41626;53.098;6.168;2022-12-07T05:58:08;4.50;99.90
55721;DHT22;41626;53.098;6.168;2022-12-07T06:00:55;4.30;99.90
55721;DHT22;41626;53.098;6.168;2022-12-07T06:03:20;4.30;99.90
55721;DHT22;41626;53.098;6.168;2022-12-07T06:05:46;4.50;99.90
55721;DHT22;41626;53.098;6.168;2022-12-07T06:08:12;4.40;99.90
55721;DHT22;41626;53.098;6.168;2022-12-07T06:10:37;4.30;99.90
55721;DHT22;41626;53.098;6.168;2022-12-07T06:13:03;4.40;99.90
55721;DHT22;41626;53.098;6.168;2022-12-07T06:15:28;4.40;99.90
55721;DHT22;41626;53.098;6.168;2022-12-07T06:17:54;4.20;99.90
55721;DHT22;41626;53.098;6.168;2022-12-07T06:20:20;4.30;99.90
55721;DHT22;41626;53.098;6.168;2022-12-07T06:22:45;4.30;99.90
55721;DHT22;41626;53.098;6.168;2022-12-07T06:25:11;4.30;99.90
55721;DHT22;41626;53.098;6.168;2022-12-07T06:27:37;4.40;99.90
55721;DHT22;41626;53.098;6.168;2022-12-07T06:30:03;4.40;99.90
55721;DHT22;41626;53.098;6.168;2022-12-07T06:32:33;4.30;99.90
55721;DHT22;41626;53.098;6.168;2022-12-07T06:34:59;4.30;99.90
55721;DHT22;41626;53.098;6.168;2022-12-07T06:37:25;4.30;99.90
55721;DHT22;41626;53.098;6.168;2022-12-07T06:39:51;4.30;99.90
55721;DHT22;41626;53.098;6.168;2022-12-07T06:42:16;4.30;99.90
55721;DHT22;41626;53.098;6.168;2022-12-07T06:44:42;4.40;99.90
55721;DHT22;41626;53.098;6.168;2022-12-07T06:47:09;4.30;99.90
55721;DHT22;41626;53.098;6.168;2022-12-07T06:49:35;4.20;99.90
55721;DHT22;41626;53.098;6.168;2022-12-07T06:52:00;4.30;99.90
55721;DHT22;41626;53.098;6.168;2022-12-07T06:54:26;4.30;99.90
55721;DHT22;41626;53.098;6.168;2022-12-07T06:56:52;4.20;99.90
55721;DHT22;41626;53.098;6.168;2022-12-07T06:59:17;4.10;99.90
55721;DHT22;41626;53.098;6.168;2022-12-07T07:01:43;4.20;99.90
55721;DHT22;41626;53.098;6.168;2022-12-07T07:04:09;4.20;99.90
55721;DHT22;41626;53.098;6.168;2022-12-07T07:06:34;4.30;99.90
55721;DHT22;41626;53.098;6.168;2022-12-07T07:09:00;4.20;99.90
55721;DHT22;41626;53.098;6.168;2022-12-07T07:11:26;4.20;99.90
55721;DHT22;41626;53.098;6.168;2022-12-07T07:13:51;4.10;99.90
55721;DHT22;41626;53.098;6.168;2022-12-07T07:16:17;4.00;99.90
55721;DHT22;41626;53.098;6.168;2022-12-07T07:18:43;4.20;99.90
55721;DHT22;41626;53.098;6.168;2022-12-07T07:21:08;4.00;99.90
55721;DHT22;41626;53.098;6.168;2022-12-07T07:23:34;4.10;99.90
55721;DHT22;41626;53.098;6.168;2022-12-07T07:26:00;3.90;99.90
55721;DHT22;41626;53.098;6.168;2022-12-07T07:28:26;4.00;99.90
55721;DHT22;41626;53.098;6.168;2022-12-07T07:30:51;3.90;99.90
55721;DHT22;41626;53.098;6.168;2022-12-07T07:33:17;3.90;99.90
55721;DHT22;41626;53.098;6.168;2022-12-07T07:35:43;4.00;99.90
55721;DHT22;41626;53.098;6.168;2022-12-07T07:38:08;3.90;99.90
55721;DHT22;41626;53.098;6.168;2022-12-07T07:40:34;4.00;99.90
55721;DHT22;41626;53.098;6.168;2022-12-07T07:43:00;4.00;99.90
55721;DHT22;41626;53.098;6.168;2022-12-07T07:45:27;4.00;99.90
55721;DHT22;41626;53.098;6.168;2022-12-07T07:47:53;3.90;99.90
55721;DHT22;41626;53.098;6.168;2022-12-07T07:50:19;3.80;99.90
55721;DHT22;41626;53.098;6.168;2022-12-07T07:52:46;3.70;99.90
55721;DHT22;41626;53.098;6.168;2022-12-07T07:55:12;3.90;99.90
55721;DHT22;41626;53.098;6.168;2022-12-07T07:57:39;3.90;99.90
55721;DHT22;41626;53.098;6.168;2022-12-07T08:00:07;3.80;99.90
55721;DHT22;41626;53.098;6.168;2022-12-07T08:02:33;3.80;99.90
55721;DHT22;41626;53.098;6.168;2022-12-07T08:04:59;4.10;99.90
55721;DHT22;41626;53.098;6.168;2022-12-07T08:07:25;4.00;99.90
55721;DHT22;41626;53.098;6.168;2022-12-07T08:09:52;3.90;99.90
55721;DHT22;41626;53.098;6.168;2022-12-07T08:12:17;4.00;99.90
55721;DHT22;41626;53.098;6.168;2022-12-07T08:14:43;4.10;99.90
55721;DHT22;41626;53.098;6.168;2022-12-07T08:17:09;4.00;99.90
55721;DHT22;41626;53.098;6.168;2022-12-07T08:19:36;4.10;99.90
55721;DHT22;41626;53.098;6.168;2022-12-07T08:22:02;4.10;99.90
55721;DHT22;41626;53.098;6.168;2022-12-07T08:24:27;3.90;99.90
55721;DHT22;41626;53.098;6.168;2022-12-07T08:26:53;4.10;99.90
55721;DHT22;41626;53.098;6.168;2022-12-07T08:29:19;4.00;99.90
55721;DHT22;41626;53.098;6.168;2022-12-07T08:31:45;4.00;99.90
55721;DHT22;41626;53.098;6.168;2022-12-07T08:34:12;4.10;99.90
55721;DHT22;41626;53.098;6.168;2022-12-07T08:36:38;4.10;99.90
55721;DHT22;41626;53.098;6.168;2022-12-07T08:39:03;4.20;99.90
55721;DHT22;41626;53.098;6.168;2022-12-07T08:41:29;4.30;99.90
55721;DHT22;41626;53.098;6.168;2022-12-07T08:43:55;4.30;99.90
55721;DHT22;41626;53.098;6.168;2022-12-07T08:49:16;4.40;99.90
55721;DHT22;41626;53.098;6.168;2022-12-07T08:51:41;4.30;99.90
55721;DHT22;41626;53.098;6.168;2022-12-07T08:54:10;4.20;99.90
55721;DHT22;41626;53.098;6.168;2022-12-07T08:56:36;4.30;99.90
55721;DHT22;41626;53.098;6.168;2022-12-07T08:59:04;4.30;99.90
55721;DHT22;41626;53.098;6.168;2022-12-07T09:01:29;4.40;99.90
55721;DHT22;41626;53.098;6.168;2022-12-07T09:03:55;4.50;99.90
55721;DHT22;41626;53.098;6.168;2022-12-07T09:06:21;4.30;99.90
55721;DHT22;41626;53.098;6.168;2022-12-07T09:08:50;4.30;99.90
55721;DHT22;41626;53.098;6.168;2022-12-07T09:11:16;4.30;99.90
55721;DHT22;41626;53.098;6.168;2022-12-07T09:13:42;4.20;99.90
55721;DHT22;41626;53.098;6.168;2022-12-07T09:16:08;4.40;99.90
55721;DHT22;41626;53.098;6.168;2022-12-07T09:18:33;4.20;99.90
55721;DHT22;41626;53.098;6.168;2022-12-07T09:20:59;4.30;99.90
55721;DHT22;41626;53.098;6.168;2022-12-07T09:23:25;4.50;99.90
55721;DHT22;41626;53.098;6.168;2022-12-07T09:25:51;4.40;99.90
55721;DHT22;41626;53.098;6.168;2022-12-07T09:28:16;4.50;99.90
55721;DHT22;41626;53.098;6.168;2022-12-07T09:30:46;4.40;99.90
55721;DHT22;41626;53.098;6.168;2022-12-07T09:33:12;4.60;99.90
55721;DHT22;41626;53.098;6.168;2022-12-07T09:35:43;4.50;99.90
55721;DHT22;41626;53.098;6.168;2022-12-07T09:38:09;4.60;99.90
55721;DHT22;41626;53.098;6.168;2022-12-07T09:40:34;4.50;99.90
55721;DHT22;41626;53.098;6.168;2022-12-07T09:43:00;4.60;99.90
55721;DHT22;41626;53.098;6.168;2022-12-07T09:45:35;4.40;99.90
55721;DHT22;41626;53.098;6.168;2022-12-07T09:48:02;4.40;99.90
55721;DHT22;41626;53.098;6.168;2022-12-07T09:50:29;4.30;99.90
55721;DHT22;41626;53.098;6.168;2022-12-07T09:53:06;4.40;99.90
55721;DHT22;41626;53.098;6.168;2022-12-07T09:55:33;4.80;99.90
55721;DHT22;41626;53.098;6.168;2022-12-07T09:58:00;4.90;99.90
55721;DHT22;41626;53.098;6.168;2022-12-07T10:00:26;5.00;99.90
55721;DHT22;41626;53.098;6.168;2022-12-07T10:02:58;5.00;99.90
55721;DHT22;41626;53.098;6.168;2022-12-07T10:05:45;5.00;99.90
55721;DHT22;41626;53.098;6.168;2022-12-07T10:08:12;5.20;99.90
55721;DHT22;41626;53.098;6.168;2022-12-07T10:10:37;5.20;99.90
55721;DHT22;41626;53.098;6.168;2022-12-07T10:13:19;5.20;99.90
55721;DHT22;41626;53.098;6.168;2022-12-07T10:20:46;5.20;99.90
55721;DHT22;41626;53.098;6.168;2022-12-07T10:23:17;5.40;99.90
55721;DHT22;41626;53.098;6.168;2022-12-07T10:25:44;5.30;99.90
55721;DHT22;41626;53.098;6.168;2022-12-07T10:28:12;5.50;99.90
55721;DHT22;41626;53.098;6.168;2022-12-07T10:30:57;5.50;99.90
55721;DHT22;41626;53.098;6.168;2022-12-07T10:35:56;5.60;99.90
55721;DHT22;41626;53.098;6.168;2022-12-07T10:38:27;5.70;99.90
55721;DHT22;41626;53.098;6.168;2022-12-07T10:41:07;5.70;99.90
55721;DHT22;41626;53.098;6.168;2022-12-07T10:43:33;5.80;99.90
55721;DHT22;41626;53.098;6.168;2022-12-07T10:48:48;5.90;99.90
55721;DHT22;41626;53.098;6.168;2022-12-07T10:51:37;6.10;99.90
55721;DHT22;41626;53.098;6.168;2022-12-07T10:54:22;6.20;99.90
55721;DHT22;41626;53.098;6.168;2022-12-07T11:13:11;6.30;99.90
55721;DHT22;41626;53.098;6.168;2022-12-07T11:18:32;6.30;99.90
55721;DHT22;41626;53.098;6.168;2022-12-07T11:24:19;6.20;99.90
55721;DHT22;41626;53.098;6.168;2022-12-07T11:26:58;6.20;99.90
55721;DHT22;41626;53.098;6.168;2022-12-07T11:37:23;6.10;99.90
55721;DHT22;41626;53.098;6.168;2022-12-07T11:39:55;6.10;99.90
55721;DHT22;41626;53.098;6.168;2022-12-07T11:42:27;6.20;99.90
55721;DHT22;41626;53.098;6.168;2022-12-07T11:45:16;6.30;99.90
55721;DHT22;41626;53.098;6.168;2022-12-07T11:50:24;6.60;99.90
55721;DHT22;41626;53.098;6.168;2022-12-07T11:53:46;6.70;99.90
55721;DHT22;41626;53.098;6.168;2022-12-07T11:56:11;6.80;99.90
55721;DHT22;41626;53.098;6.168;2022-12-07T12:06:35;6.40;99.90
55721;DHT22;41626;53.098;6.168;2022-12-07T12:09:35;6.20;99.90
55721;DHT22;41626;53.098;6.168;2022-12-07T12:12:23;5.50;99.90
55721;DHT22;41626;53.098;6.168;2022-12-07T12:15:03;5.30;99.90
55721;DHT22;41626;53.098;6.168;2022-12-07T12:17:49;5.00;99.90
55721;DHT22;41626;53.098;6.168;2022-12-07T12:23:12;4.90;99.90
55721;DHT22;41626;53.098;6.168;2022-12-07T12:25:53;4.90;99.90
55721;DHT22;41626;53.098;6.168;2022-12-07T12:31:17;5.00;99.90
55721;DHT22;41626;53.098;6.168;2022-12-07T12:33:59;4.90;99.90
55721;DHT22;41626;53.098;6.168;2022-12-07T12:39:17;5.00;99.90
55721;DHT22;41626;53.098;6.168;2022-12-07T12:46:57;5.10;99.90
55721;DHT22;41626;53.098;6.168;2022-12-07T12:51:56;5.40;99.90
55721;DHT22;41626;53.098;6.168;2022-12-07T12:54:27;5.40;99.90
55721;DHT22;41626;53.098;6.168;2022-12-07T12:57:24;5.50;99.90
55721;DHT22;41626;53.098;6.168;2022-12-07T13:05:02;5.20;99.90
55721;DHT22;41626;53.098;6.168;2022-12-07T13:15:54;5.20;99.90
55721;DHT22;41626;53.098;6.168;2022-12-07T13:18:39;5.30;99.90
55721;DHT22;41626;53.098;6.168;2022-12-07T13:26:22;5.20;99.90
55721;DHT22;41626;53.098;6.168;2022-12-07T13:31:40;5.40;99.90
55721;DHT22;41626;53.098;6.168;2022-12-07T13:34:41;5.20;99.90
55721;DHT22;41626;53.098;6.168;2022-12-07T13:37:25;5.10;99.90
55721;DHT22;41626;53.098;6.168;2022-12-07T13:39:58;5.20;99.90
55721;DHT22;41626;53.098;6.168;2022-12-07T13:44:52;5.10;99.90
55721;DHT22;41626;53.098;6.168;2022-12-07T13:47:32;5.00;99.90
55721;DHT22;41626;53.098;6.168;2022-12-07T13:49:59;5.20;99.90
55721;DHT22;41626;53.098;6.168;2022-12-07T13:52:27;5.10;99.90
55721;DHT22;41626;53.098;6.168;2022-12-07T13:55:05;5.20;99.90
55721;DHT22;41626;53.098;6.168;2022-12-07T13:57:37;5.10;99.90
55721;DHT22;41626;53.098;6.168;2022-12-07T14:00:04;5.00;99.90
55721;DHT22;41626;53.098;6.168;2022-12-07T14:02:33;5.00;99.90
55721;DHT22;41626;53.098;6.168;2022-12-07T14:05:26;5.10;99.90
55721;DHT22;41626;53.098;6.168;2022-12-07T14:08:04;5.00;99.90
55721;DHT22;41626;53.098;6.168;2022-12-07T14:10:32;4.80;99.90
55721;DHT22;41626;53.098;6.168;2022-12-07T14:12:59;4.80;99.90
55721;DHT22;41626;53.098;6.168;2022-12-07T14:15:29;4.80;99.90
55721;DHT22;41626;53.098;6.168;2022-12-07T14:17:57;4.80;99.90
55721;DHT22;41626;53.098;6.168;2022-12-07T14:20:36;4.90;99.90
55721;DHT22;41626;53.098;6.168;2022-12-07T14:23:03;4.80;99.90
55721;DHT22;41626;53.098;6.168;2022-12-07T14:25:49;4.80;99.90
55721;DHT22;41626;53.098;6.168;2022-12-07T14:28:29;4.80;99.90
55721;DHT22;41626;53.098;6.168;2022-12-07T14:30:56;4.70;99.90
55721;DHT22;41626;53.098;6.168;2022-12-07T14:33:23;4.70;99.90
55721;DHT22;41626;53.098;6.168;2022-12-07T14:35:49;4.70;99.90
55721;DHT22;41626;53.098;6.168;2022-12-07T14:38:15;4.80;99.90
55721;DHT22;41626;53.098;6.168;2022-12-07T14:40:41;4.90;99.90
55721;DHT22;41626;53.098;6.168;2022-12-07T14:43:12;4.90;99.90
55721;DHT22;41626;53.098;6.168;2022-12-07T14:45:40;5.00;99.90
55721;DHT22;41626;53.098;6.168;2022-12-07T14:48:07;5.00;99.90
55721;DHT22;41626;53.098;6.168;2022-12-07T14:50:37;5.10;99.90
55721;DHT22;41626;53.098;6.168;2022-12-07T14:53:15;5.00;99.90
55721;DHT22;41626;53.098;6.168;2022-12-07T14:55:41;4.80;99.90
55721;DHT22;41626;53.098;6.168;2022-12-07T14:58:14;4.90;99.90
55721;DHT22;41626;53.098;6.168;2022-12-07T15:00:40;4.90;99.90
55721;DHT22;41626;53.098;6.168;2022-12-07T15:03:05;5.00;99.90
55721;DHT22;41626;53.098;6.168;2022-12-07T15:05:32;4.90;99.90
55721;DHT22;41626;53.098;6.168;2022-12-07T15:07:58;4.80;99.90
55721;DHT22;41626;53.098;6.168;2022-12-07T15:10:26;4.80;99.90
55721;DHT22;41626;53.098;6.168;2022-12-07T15:12:56;4.80;99.90
55721;DHT22;41626;53.098;6.168;2022-12-07T15:15:41;4.80;99.90
55721;DHT22;41626;53.098;6.168;2022-12-07T15:18:07;5.00;99.90
55721;DHT22;41626;53.098;6.168;2022-12-07T15:20:33;4.90;99.90
55721;DHT22;41626;53.098;6.168;2022-12-07T15:22:59;4.80;99.90
55721;DHT22;41626;53.098;6.168;2022-12-07T15:25:24;4.90;99.90
55721;DHT22;41626;53.098;6.168;2022-12-07T15:27:50;4.70;99.90
55721;DHT22;41626;53.098;6.168;2022-12-07T15:30:16;4.70;99.90
55721;DHT22;41626;53.098;6.168;2022-12-07T15:32:41;4.70;99.90
55721;DHT22;41626;53.098;6.168;2022-12-07T15:35:07;4.60;99.90
55721;DHT22;41626;53.098;6.168;2022-12-07T15:37:33;4.70;99.90
55721;DHT22;41626;53.098;6.168;2022-12-07T15:39:59;4.60;99.90
55721;DHT22;41626;53.098;6.168;2022-12-07T15:42:25;4.50;99.90
55721;DHT22;41626;53.098;6.168;2022-12-07T15:44:50;4.30;99.90
55721;DHT22;41626;53.098;6.168;2022-12-07T15:47:42;4.40;99.90
55721;DHT22;41626;53.098;6.168;2022-12-07T15:50:11;4.40;99.90
55721;DHT22;41626;53.098;6.168;2022-12-07T15:52:38;4.30;99.90
55721;DHT22;41626;53.098;6.168;2022-12-07T15:55:04;4.20;99.90
55721;DHT22;41626;53.098;6.168;2022-12-07T15:57:31;4.20;99.90
55721;DHT22;41626;53.098;6.168;2022-12-07T15:59:57;4.10;99.90
55721;DHT22;41626;53.098;6.168;2022-12-07T16:02:22;4.00;99.90
55721;DHT22;41626;53.098;6.168;2022-12-07T16:04:49;4.00;99.90
55721;DHT22;41626;53.098;6.168;2022-12-07T16:07:15;4.20;99.90
55721;DHT22;41626;53.098;6.168;2022-12-07T16:09:45;4.10;99.90
55721;DHT22;41626;53.098;6.168;2022-12-07T16:12:12;4.10;99.90
55721;DHT22;41626;53.098;6.168;2022-12-07T16:14:38;4.20;99.90
55721;DHT22;41626;53.098;6.168;2022-12-07T16:17:05;4.10;99.90
55721;DHT22;41626;53.098;6.168;2022-12-07T16:19:32;4.20;99.90
55721;DHT22;41626;53.098;6.168;2022-12-07T16:21:57;4.30;99.90
55721;DHT22;41626;53.098;6.168;2022-12-07T16:24:24;4.30;99.90
55721;DHT22;41626;53.098;6.168;2022-12-07T16:26:50;4.10;99.90
55721;DHT22;41626;53.098;6.168;2022-12-07T16:29:17;4.00;99.90
55721;DHT22;41626;53.098;6.168;2022-12-07T16:31:43;4.10;99.90
55721;DHT22;41626;53.098;6.168;2022-12-07T16:34:09;4.00;99.90
55721;DHT22;41626;53.098;6.168;2022-12-07T16:36:35;4.00;99.90
55721;DHT22;41626;53.098;6.168;2022-12-07T16:39:01;4.10;99.90
55721;DHT22;41626;53.098;6.168;2022-12-07T16:41:27;4.00;99.90
55721;DHT22;41626;53.098;6.168;2022-12-07T16:43:53;4.00;99.90
55721;DHT22;41626;53.098;6.168;2022-12-07T16:46:18;4.00;99.90
55721;DHT22;41626;53.098;6.168;2022-12-07T16:48:44;4.00;99.90
55721;DHT22;41626;53.098;6.168;2022-12-07T16:51:12;4.10;99.90
55721;DHT22;41626;53.098;6.168;2022-12-07T16:53:39;4.00;99.90
55721;DHT22;41626;53.098;6.168;2022-12-07T16:56:13;3.80;99.90
55721;DHT22;41626;53.098;6.168;2022-12-07T16:58:42;3.90;99.90
55721;DHT22;41626;53.098;6.168;2022-12-07T17:01:13;4.00;99.90
55721;DHT22;41626;53.098;6.168;2022-12-07T17:03:39;4.00;99.90
55721;DHT22;41626;53.098;6.168;2022-12-07T17:06:34;4.10;99.90
55721;DHT22;41626;53.098;6.168;2022-12-07T17:09:00;4.00;99.90
55721;DHT22;41626;53.098;6.168;2022-12-07T17:11:28;4.00;99.90
55721;DHT22;41626;53.098;6.168;2022-12-07T17:13:57;4.00;99.90
55721;DHT22;41626;53.098;6.168;2022-12-07T17:16:41;3.80;99.90
55721;DHT22;41626;53.098;6.168;2022-12-07T17:19:08;4.00;99.90
55721;DHT22;41626;53.098;6.168;2022-12-07T17:21:34;3.90;99.90
55721;DHT22;41626;53.098;6.168;2022-12-07T17:24:02;3.90;99.90
55721;DHT22;41626;53.098;6.168;2022-12-07T17:26:28;3.80;99.90
55721;DHT22;41626;53.098;6.168;2022-12-07T17:28:55;3.80;99.90
55721;DHT22;41626;53.098;6.168;2022-12-07T17:31:22;3.80;99.90
55721;DHT22;41626;53.098;6.168;2022-12-07T17:33:48;3.90;99.90
55721;DHT22;41626;53.098;6.168;2022-12-07T17:36:21;3.70;99.90
55721;DHT22;41626;53.098;6.168;2022-12-07T17:38:48;3.90;99.90
55721;DHT22;41626;53.098;6.168;2022-12-07T17:41:15;3.90;99.90
55721;DHT22;41626;53.098;6.168;2022-12-07T17:44:01;3.90;99.90
55721;DHT22;41626;53.098;6.168;2022-12-07T17:46:27;3.90;99.90
55721;DHT22;41626;53.098;6.168;2022-12-07T17:48:57;3.90;99.90
55721;DHT22;41626;53.098;6.168;2022-12-07T17:51:26;3.90;99.90
55721;DHT22;41626;53.098;6.168;2022-12-07T17:54:11;3.90;99.90
55721;DHT22;41626;53.098;6.168;2022-12-07T17:56:36;3.80;99.90
55721;DHT22;41626;53.098;6.168;2022-12-07T17:59:03;3.90;99.90